Date,TemperatureHighF,TemperatureAvgF,TemperatureLowF,DewpointHighF,DewpointAvgF,DewpointLowF,HumidityHigh,HumidityAvg,HumidityLow,PressureMaxIn,PressureMinIn,WindSpeedMaxMPH,WindSpeedAvgMPH,GustSpeedMaxMPH,PrecipitationSumIn
2013-1-1,65.6,64.7,60.9,62.7,59.9,58.3,98,85,79,30.08,30.02,1,1,6,0.00
2013-1-2,68.3,52.7,48.5,61.5,41.1,-99.9,98,77,53,30.13,29.94,1,-60,10,0.00
2013-1-3,48.8,43.8,36.0,46.5,41.7,33.1,100,93,81,30.31,30.12,1,0,7,0.24
2013-1-4,61.5,44.7,34.1,39.4,34.6,29.5,91,71,32,30.38,30.27,1,0,5,0.00
2013-1-5,56.5,47.7,38.5,43.4,35.5,29.8,87,64,45,30.34,30.20,1,0,3,0.00
2013-1-6,56.6,50.7,46.7,45.5,41.2,36.4,87,70,54,30.25,30.13,1,0,6,0.00
2013-1-7,68.6,48.4,38.9,44.2,29.5,-99.9,96,61,32,30.28,30.17,1,-76,5,0.00
2013-1-8,66.6,57.9,45.7,58.5,50.7,38.5,84,77,66,30.24,30.14,1,0,6,0.00
2013-1-9,71.5,59.3,62.7,68.1,45.9,-99.9,100,82,84,30.25,30.14,2,-115,9,0.00
2013-1-10,67.3,66.9,66.8,67.1,66.9,66.5,100,100,99,30.24,30.20,1,0,5,0.00
2013-1-11,69.1,69.1,69.1,68.2,68.2,68.2,97,97,97,30.11,30.10,0,0,5,0.00
2013-1-14,72.7,70.2,69.6,70.0,69.2,68.8,99,97,91,30.07,30.02,1,0,7,0.00
2013-1-15,74.6,66.8,68.3,70.4,59.2,-99.9,99,88,85,30.03,29.92,4,-58,13,0.00
2013-1-16,72.1,58.6,49.1,70.4,53.6,-99.9,100,94,92,29.98,29.91,4,-46,13,0.37
2013-1-17,49.1,40.3,40.1,48.9,26.4,-99.9,100,73,64,30.26,29.98,7,-74,17,0.00
2013-1-18,67.9,47.3,35.5,39.7,35.9,33.7,93,69,31,30.47,30.26,1,0,7,0.00
2013-1-19,69.9,58.9,46.1,48.8,46.3,42.9,89,65,43,30.28,30.22,0,0,3,0.00
2013-1-20,70.8,57.6,40.6,47.7,44.0,39.3,95,64,39,30.23,30.09,2,0,7,0.00
2013-1-21,71.8,53.1,39.9,50.5,42.9,38.6,100,73,34,30.17,30.08,2,0,7,0.00
2013-1-22,67.9,47.2,36.5,40.2,26.0,-99.9,91,55,26,30.33,30.16,1,-59,4,0.00
2013-1-23,65.5,49.1,33.7,50.2,41.6,32.4,98,78,46,30.39,30.28,1,0,6,0.00
2013-1-24,71.1,53.2,41.6,56.5,40.9,-99.9,100,77,56,30.32,30.21,5,-68,11,0.00
2013-1-25,72.3,54.4,45.7,62.5,41.9,-99.9,100,78,59,30.28,30.15,3,-76,9,0.00
2013-1-26,74.6,57.4,51.1,62.0,45.3,-99.9,100,80,62,30.23,30.14,3,-81,7,0.00
2013-1-27,74.2,54.9,50.7,59.5,39.0,-99.9,100,73,58,30.30,30.23,1,-102,5,0.00
2013-1-28,73.2,64.7,52.2,65.2,61.5,51.1,100,90,73,30.28,30.16,1,0,9,0.00
2013-1-29,76.3,63.4,66.3,70.3,51.5,-99.9,98,83,77,30.16,29.90,4,-98,11,0.00
2013-1-30,75.3,61.7,45.4,71.3,53.4,-99.9,98,83,61,30.06,29.65,7,-41,16,0.05
2013-1-31,64.5,42.7,39.1,38.3,14.2,-99.9,88,48,24,30.28,30.06,2,-130,12,0.00
2013-2-1,68.3,51.4,35.6,41.9,34.7,25.1,73,55,27,30.36,30.27,2,0,11,0.00
2013-2-2,64.5,47.5,29.7,46.0,35.6,19.7,95,65,44,30.35,30.14,1,0,5,0.00
2013-2-3,68.8,48.7,43.6,50.3,27.6,-99.9,98,63,27,30.22,30.09,3,-106,10,0.00
2013-2-4,67.1,52.8,39.3,55.0,39.7,-99.9,96,70,47,30.10,29.96,1,-43,4,0.00
2013-2-5,68.9,58.2,55.0,64.1,50.4,-99.9,100,86,71,30.00,29.93,1,-48,5,0.28
2013-2-6,74.0,56.4,54.1,60.2,43.1,-99.9,99,78,60,30.13,30.00,1,-90,5,0.00
2013-2-7,79.0,64.3,54.2,67.8,60.6,53.1,100,89,55,30.02,29.75,6,0,12,0.75
2013-2-8,70.6,58.4,47.6,60.7,54.9,47.6,100,89,65,30.11,29.91,2,0,9,0.00
2013-2-9,65.3,54.2,44.6,52.4,47.3,42.4,97,79,51,30.23,30.11,2,0,6,0.00
2013-2-10,66.1,54.5,46.1,63.1,53.9,45.6,100,98,90,30.13,30.07,2,0,11,0.01
2013-2-11,76.7,64.5,57.6,72.3,63.3,57.2,99,96,75,30.08,30.01,3,0,11,0.62
2013-2-12,69.9,61.8,56.3,69.9,55.9,-99.9,100,92,82,30.02,29.76,4,-46,14,0.05
2013-2-13,69.4,58.0,47.7,69.3,53.3,46.3,100,86,57,30.03,29.76,4,1,12,0.07
2013-2-14,62.3,44.4,37.0,46.2,40.3,35.7,95,86,48,30.08,29.99,0,0,3,0.00
2013-2-15,67.8,48.5,33.1,47.8,34.8,-99.9,100,70,38,30.13,30.00,2,-42,6,0.00
2013-2-16,58.9,48.7,34.6,44.9,29.3,16.3,81,50,23,30.25,30.02,3,1,13,0.00
2013-2-17,56.5,40.3,26.4,32.0,25.4,15.1,91,60,21,30.37,30.25,2,0,7,0.00
2013-2-18,65.2,52.0,32.2,52.7,41.4,30.4,100,70,45,30.29,30.05,4,1,13,0.00
2013-2-19,72.0,60.9,38.6,63.4,49.2,28.7,100,69,29,30.17,29.99,4,1,13,0.33
2013-2-20,61.5,45.9,36.0,37.5,30.6,23.8,92,59,25,30.22,30.07,1,0,4,0.00
2013-2-21,66.9,55.0,36.0,65.0,47.2,31.8,98,78,42,30.08,29.90,2,0,12,0.00
2013-2-22,69.4,67.0,65.3,69.4,66.9,65.0,100,100,98,29.95,29.85,3,0,11,1.64
2013-2-23,69.4,49.1,56.9,69.4,27.3,-99.9,100,78,100,29.91,29.76,2,-217,7,0.85
2013-2-24,69.1,46.7,53.1,60.7,17.4,-99.9,100,64,67,29.96,29.81,1,-251,5,1.00
2013-2-25,68.1,57.1,58.3,65.8,48.5,-99.9,100,90,80,29.85,29.51,3,-80,10,3.05
2013-2-26,67.1,57.8,53.6,67.1,48.1,43.2,100,71,56,29.88,29.50,8,3,21,0.00
2013-2-27,55.0,44.4,44.2,47.5,31.5,-99.9,97,78,62,29.99,29.88,1,-89,9,0.00
2013-2-28,57.0,51.3,48.5,35.8,34.6,31.4,59,53,39,30.04,29.96,1,0,6,0.00
2013-3-1,54.4,47.0,40.2,40.4,34.6,31.3,79,63,44,30.10,29.98,2,0,9,0.00
2013-3-2,55.6,42.1,30.4,31.2,27.6,24.4,91,59,33,30.14,30.03,4,1,14,0.00
2013-3-3,56.9,42.6,33.2,29.0,25.5,21.7,83,53,27,30.18,30.07,4,0,11,0.00
2013-3-4,66.4,51.6,31.0,58.7,42.4,28.3,99,73,40,30.18,29.99,2,0,9,0.00
2013-3-5,62.3,61.0,59.2,58.8,56.7,55.4,90,86,81,29.99,29.97,1,0,6,0.00
2013-3-7,42.3,41.9,41.3,41.0,40.7,40.2,96,96,95,30.22,30.21,0,0,0,0.00
2013-3-8,70.1,52.0,36.0,46.5,40.8,33.0,96,71,28,30.27,30.15,2,0,6,0.00
2013-3-9,68.9,56.7,42.3,57.0,49.0,41.2,100,77,54,30.20,30.05,2,0,9,0.00
2013-3-10,71.8,64.1,60.1,60.8,57.9,51.7,96,81,66,30.09,29.96,3,1,12,0.00
2013-3-11,70.8,63.4,55.3,64.8,61.2,54.8,100,93,80,29.96,29.80,3,1,13,0.91
2013-3-12,70.4,58.0,44.8,41.8,38.3,33.6,82,51,27,30.14,30.00,2,0,5,0.00
2013-3-13,71.8,52.8,38.0,41.0,33.5,23.0,94,55,19,30.30,30.14,3,0,12,0.00
2013-3-14,63.2,46.8,39.5,39.8,33.6,26.2,84,62,25,30.30,30.25,0,0,3,0.00
2013-3-15,67.3,52.8,36.3,53.7,43.9,35.3,100,76,34,30.28,30.13,4,1,11,0.00
2013-3-16,74.4,63.4,49.2,60.3,55.9,47.4,100,78,53,30.13,29.99,4,1,17,0.00
2013-3-17,72.1,61.8,51.3,65.8,59.9,51.0,100,94,73,30.00,29.91,2,0,10,0.00
2013-3-18,76.7,68.5,63.7,68.7,65.3,62.4,98,90,75,29.93,29.81,2,1,9,0.00
2013-3-20,44.9,42.5,39.9,33.8,33.5,32.9,76,70,64,29.99,29.98,0,0,0,0.00
2013-3-21,73.5,53.4,38.2,41.3,32.2,22.4,86,51,16,30.04,29.88,2,0,7,0.00
2013-3-22,69.4,57.1,45.7,53.0,43.2,33.1,82,61,35,29.96,29.87,3,1,11,0.00
2013-3-23,66.8,66.8,66.8,62.1,62.1,62.1,85,85,85,29.81,29.81,1,1,6,0.00
2013-3-24,77.6,69.6,58.4,64.7,53.7,36.0,72,57,40,29.80,29.58,5,3,17,0.00
2013-3-26,-200.0,0.0,200.0,-99.9,-99.9,-99.9,0,0,100,30.26,30.26,0,-999,0,0.00
2013-3-29,69.3,58.8,49.8,51.7,49.3,45.5,93,73,44,30.22,30.20,2,0,7,0.00
2013-3-30,76.0,59.6,46.0,62.3,47.8,-99.9,100,76,46,30.20,30.04,2,-45,6,0.00
2013-3-31,77.0,67.7,55.9,66.3,62.6,55.1,100,85,62,30.05,29.88,2,1,9,0.00
2013-4-1,82.6,65.8,52.9,65.5,51.5,-99.9,99,68,41,30.00,29.88,2,-40,10,0.00
2013-4-2,79.8,63.9,46.4,57.2,50.1,43.3,100,67,28,30.10,30.00,2,0,11,0.00
2013-4-3,62.0,59.1,55.1,61.0,57.4,53.9,100,94,75,30.04,29.76,3,0,12,1.11
2013-4-4,72.3,60.8,58.1,65.4,51.7,-99.9,100,84,70,29.92,29.82,3,-56,11,0.01
2013-4-5,69.3,57.3,47.4,57.6,50.8,45.8,95,80,49,30.07,29.86,2,0,10,0.01
2013-4-6,71.8,54.8,42.6,55.3,41.3,-99.9,100,72,46,30.16,30.05,2,-51,9,0.00
2013-4-7,76.1,62.3,47.0,65.1,58.3,46.0,100,88,67,30.13,30.01,2,0,10,0.00
2013-4-8,80.7,70.1,62.3,67.5,64.5,60.8,99,84,59,30.08,29.98,2,0,10,0.00
2013-4-9,81.4,71.6,65.5,67.3,65.1,61.7,99,82,59,30.10,29.96,2,1,10,0.00
2013-4-11,76.7,75.2,73.7,72.5,71.9,71.4,94,90,87,29.70,29.65,2,1,9,0.00
2013-4-14,67.3,63.6,58.9,65.3,62.8,58.9,100,98,93,29.91,29.67,3,0,12,1.45
2013-4-15,79.0,48.5,62.0,70.4,13.1,-99.9,100,59,70,30.03,29.82,1,-324,7,0.00
2013-4-16,82.6,68.0,63.1,69.3,55.1,-99.9,100,76,62,30.11,30.01,2,-67,10,0.00
2013-4-17,76.3,76.3,76.3,67.8,67.8,67.8,75,75,75,30.12,30.12,2,2,2,0.00
2013-4-20,66.8,54.6,46.5,45.3,43.5,40.6,88,68,39,30.17,30.09,0,0,6,0.00
2013-4-21,75.1,58.8,41.9,52.6,46.8,40.8,98,69,42,30.17,30.08,3,0,10,0.00
2013-4-22,76.3,65.2,53.6,63.0,56.8,47.1,92,75,60,30.13,30.04,1,0,5,0.00
2013-4-23,76.3,58.9,58.1,62.9,38.9,-99.9,96,67,59,30.12,30.03,2,-133,7,0.00
2013-4-24,70.6,62.9,55.9,69.1,61.9,55.2,99,97,95,30.11,30.02,0,0,0,0.02
2013-4-25,84.1,69.2,60.4,65.6,59.7,41.7,100,75,43,30.24,30.09,3,0,10,0.00
2013-4-26,82.2,68.0,54.4,55.8,45.3,36.2,88,48,20,30.27,30.19,2,0,7,0.00
2013-4-27,79.6,68.0,55.1,70.7,63.9,54.1,100,87,69,30.20,30.04,2,0,9,0.00
2013-4-28,81.4,74.2,67.9,71.2,67.9,64.2,99,82,61,30.07,29.93,2,0,7,0.00
2013-4-29,84.1,71.6,66.0,71.0,65.6,61.2,97,82,59,29.97,29.88,3,0,12,0.00
2013-4-30,82.8,71.5,61.6,70.4,66.3,61.0,100,85,59,29.96,29.88,2,0,11,0.00
2013-5-1,73.9,71.3,69.6,70.1,67.9,65.1,97,89,76,29.94,29.85,2,1,9,0.07
2013-5-2,73.3,55.1,65.3,66.4,33.8,-99.9,99,74,74,29.97,29.89,2,-189,7,0.27
2013-5-3,75.8,67.5,54.4,66.1,64.4,53.6,100,90,71,29.91,29.78,2,0,6,0.37
2013-5-4,73.2,53.7,46.5,53.6,34.2,-99.9,100,62,28,29.90,29.82,4,-71,12,0.05
2013-5-5,74.2,58.9,43.5,63.3,46.4,39.4,100,68,30,29.95,29.79,8,2,21,0.10
2013-5-6,72.5,61.5,49.9,55.8,48.7,42.4,84,64,40,29.99,29.90,6,2,20,0.00
2013-5-7,77.2,64.9,54.4,59.9,56.7,52.4,97,76,49,30.02,29.91,5,1,14,0.00
2013-5-8,79.2,67.5,54.4,68.5,61.9,53.6,100,84,50,30.09,29.99,4,1,10,0.00
2013-5-9,81.2,65.7,57.2,69.1,52.6,-99.9,100,75,49,30.13,30.03,3,-62,9,0.00
2013-5-10,78.6,72.1,65.5,68.7,66.8,63.7,95,84,66,30.12,29.91,3,1,9,0.00
2013-5-11,78.5,65.9,60.7,69.7,60.6,-99.9,100,90,66,30.03,29.92,2,-31,6,0.27
2013-5-12,86.5,72.7,62.6,67.4,59.1,47.4,100,68,28,30.08,29.95,1,0,4,0.01
2013-5-13,86.7,64.7,49.9,54.0,39.3,-99.9,85,48,19,30.23,30.08,1,-40,6,0.00
2013-5-14,79.0,65.3,50.1,56.5,52.3,47.0,98,67,34,30.26,30.14,3,0,10,0.00
2013-5-15,83.8,69.1,54.1,65.9,56.2,47.3,100,68,30,30.20,30.03,3,0,8,0.00
2013-5-16,81.2,73.0,69.6,69.4,67.7,62.2,95,84,64,30.03,29.98,2,0,7,0.00
2013-5-17,83.2,74.8,68.9,71.9,70.3,67.7,98,87,67,30.07,29.97,2,0,7,0.00
2013-5-18,83.8,66.1,72.7,72.0,46.2,-99.9,95,69,65,30.08,30.00,3,-141,10,0.00
2013-5-19,84.1,76.5,71.3,72.3,71.1,68.6,96,84,65,30.05,29.98,3,0,6,0.00
2013-5-20,86.5,77.5,69.6,74.5,71.3,68.4,99,82,62,30.04,29.95,3,0,7,0.00
2013-5-21,86.5,77.3,68.8,73.7,70.1,67.6,100,80,57,29.99,29.88,2,0,7,0.00
2013-5-22,84.3,71.1,66.3,74.4,59.1,-99.9,100,78,65,29.99,29.86,3,-65,7,0.00
2013-5-23,91.2,79.0,67.3,72.4,69.0,61.1,99,74,39,30.01,29.91,4,1,13,0.00
2013-5-24,95.4,80.3,63.5,72.3,62.2,51.1,99,60,25,30.13,29.99,1,0,6,0.00
2013-5-25,88.2,72.5,58.6,59.6,52.5,47.8,87,54,25,30.20,30.11,2,0,9,0.00
2013-5-26,87.4,73.7,60.7,71.2,65.0,57.6,97,77,43,30.20,30.10,2,0,7,0.00
2013-5-27,86.7,75.9,63.2,70.4,66.7,62.2,99,75,50,30.15,30.05,2,0,9,0.00
2013-5-28,85.9,74.7,62.6,72.2,68.2,61.5,100,82,61,30.09,30.02,2,1,10,0.00
2013-5-29,86.3,77.7,67.1,73.8,70.9,66.2,100,81,61,30.07,29.99,3,1,14,0.00
2013-5-30,88.8,80.7,76.3,73.5,71.4,67.3,89,74,53,30.06,29.99,3,1,11,0.00
2013-5-31,77.7,76.9,76.1,72.5,72.1,71.5,88,85,82,30.03,29.97,1,0,6,0.00
2013-6-1,86.5,79.7,75.4,75.2,73.6,71.1,94,82,66,30.01,29.93,2,1,9,0.00
2013-6-2,84.9,78.9,70.4,76.0,72.6,66.0,99,82,60,29.96,29.83,1,0,6,0.36
2013-6-3,79.2,69.0,77.0,75.6,54.2,-99.9,92,78,79,29.90,29.84,0,-115,0,0.00
2013-7-4,72.7,72.4,72.2,42.3,42.1,41.8,34,34,33,29.50,29.43,1,0,1,0.00